createdAt,value
2023-01-27T00:01:05.818Z,15.45
2023-01-27T00:03:33.561Z,13.70
2023-01-27T00:06:01.087Z,13.48
2023-01-27T00:08:29.562Z,15.63
2023-01-27T00:11:19.496Z,16.38
2023-01-27T00:13:46.672Z,14.18
2023-01-27T00:16:14.040Z,14.65
2023-01-27T00:18:41.144Z,16.40
2023-01-27T00:21:27.195Z,14.02
2023-01-27T00:24:12.890Z,13.90
2023-01-27T00:26:40.186Z,15.40
2023-01-27T00:29:07.154Z,15.98
2023-01-27T00:31:53.309Z,14.63
2023-01-27T00:34:20.345Z,14.30
2023-01-27T00:36:47.789Z,15.60
2023-01-27T00:39:14.954Z,12.50
2023-01-27T00:41:44.372Z,12.40
2023-01-27T00:44:13.361Z,12.88
2023-01-27T00:46:42.676Z,11.65
2023-01-27T00:49:13.155Z,11.93
2023-01-27T00:51:40.867Z,17.65
2023-01-27T00:54:08.670Z,17.65
2023-01-27T00:56:36.569Z,14.80
2023-01-27T00:59:04.413Z,17.05
2023-01-27T01:01:33.947Z,15.60
2023-01-27T01:04:02.279Z,14.50
2023-01-27T01:06:29.706Z,16.98
2023-01-27T01:08:58.147Z,14.43
2023-01-27T01:11:26.062Z,13.30
2023-01-27T01:13:55.858Z,12.00
2023-01-27T01:16:25.363Z,12.23
2023-01-27T01:18:53.340Z,14.85
2023-01-27T01:21:21.780Z,12.35
2023-01-27T01:23:49.423Z,16.23
2023-01-27T01:26:17.946Z,20.83
2023-01-27T01:28:46.453Z,13.73
2023-01-27T01:31:18.589Z,13.90
2023-01-27T01:33:47.905Z,17.67
2023-01-27T01:36:21.694Z,19.85
2023-01-27T01:38:49.226Z,22.38
2023-01-27T01:41:19.937Z,21.02
2023-01-27T01:43:49.373Z,17.48
2023-01-27T01:46:19.060Z,22.63
2023-01-27T01:49:03.490Z,18.88
2023-01-27T01:51:45.773Z,23.70
2023-01-27T01:54:23.194Z,18.30
2023-01-27T01:56:58.274Z,16.88
2023-01-27T01:59:44.335Z,25.40
2023-01-27T02:02:18.195Z,20.50
2023-01-27T02:05:02.953Z,24.85
2023-01-27T02:07:59.768Z,27.15
2023-01-27T02:10:29.242Z,24.85
2023-01-27T02:12:56.505Z,22.77
2023-01-27T02:15:23.861Z,19.95
2023-01-27T02:17:53.475Z,18.05
2023-01-27T02:20:37.076Z,22.73
2023-01-27T02:23:44.766Z,18.00
2023-01-27T02:26:28.109Z,18.98
2023-01-27T02:29:01.107Z,23.40
2023-01-27T02:31:28.652Z,17.35
2023-01-27T02:34:23.028Z,17.58
2023-01-27T02:36:58.243Z,18.38
2023-01-27T02:39:34.365Z,20.17
2023-01-27T02:42:05.700Z,16.30
2023-01-27T02:44:33.183Z,19.40
2023-01-27T02:47:00.138Z,15.73
2023-01-27T02:49:28.557Z,19.90
2023-01-27T02:51:55.993Z,15.75
2023-01-27T02:54:27.061Z,18.23
2023-01-27T02:56:54.324Z,19.48
2023-01-27T02:59:23.968Z,15.80
2023-01-27T03:01:51.511Z,20.40
2023-01-27T03:04:19.861Z,16.20
2023-01-27T03:06:46.951Z,20.00
2023-01-27T03:09:14.411Z,14.88
2023-01-27T03:12:00.216Z,15.48
2023-01-27T03:14:48.189Z,19.13
2023-01-27T03:17:35.013Z,15.00
2023-01-27T03:20:04.599Z,16.13
2023-01-27T03:22:32.702Z,13.55
2023-01-27T03:25:00.673Z,13.27
2023-01-27T03:27:28.117Z,13.15
2023-01-27T03:30:22.334Z,16.15
2023-01-27T03:33:00.506Z,15.25
2023-01-27T03:35:49.364Z,18.88
2023-01-27T03:38:39.884Z,14.85
2023-01-27T03:41:25.639Z,18.73
2023-01-27T03:44:11.442Z,14.48
2023-01-27T03:46:40.178Z,14.50
2023-01-27T03:49:07.126Z,19.02
2023-01-27T03:51:34.460Z,19.35
2023-01-27T03:54:02.349Z,13.93
2023-01-27T03:56:29.850Z,14.07
2023-01-27T03:58:57.751Z,37.65
2023-01-27T04:01:25.192Z,26.27
2023-01-27T04:04:11.072Z,22.85
2023-01-27T04:06:55.242Z,25.00
2023-01-27T04:09:36.037Z,28.60
2023-01-27T04:12:06.462Z,26.95
2023-01-27T04:14:43.564Z,26.35
2023-01-27T04:17:15.947Z,23.88
2023-01-27T04:19:45.650Z,25.60
2023-01-27T04:22:18.510Z,22.95
2023-01-27T04:24:45.689Z,22.27
2023-01-27T04:27:20.190Z,19.45
2023-01-27T04:29:47.507Z,21.08
2023-01-27T04:32:15.188Z,21.17
2023-01-27T04:34:42.533Z,21.17
2023-01-27T04:37:11.126Z,18.90
2023-01-27T04:39:38.456Z,19.75
2023-01-27T04:42:05.930Z,19.73
2023-01-27T04:44:33.153Z,20.17
2023-01-27T04:47:00.466Z,18.80
2023-01-27T04:49:29.194Z,25.63
2023-01-27T04:51:56.533Z,16.73
2023-01-27T04:54:23.600Z,18.65
2023-01-27T04:57:05.915Z,19.00
2023-01-27T04:59:32.986Z,18.27
2023-01-27T05:02:00.345Z,14.52
2023-01-27T05:04:28.234Z,15.27
2023-01-27T05:06:55.644Z,14.75
2023-01-27T05:09:22.990Z,14.27
2023-01-27T05:11:50.365Z,13.85
2023-01-27T05:14:17.486Z,12.73
2023-01-27T05:16:44.870Z,12.00
2023-01-27T05:19:12.150Z,14.15
2023-01-27T05:21:39.414Z,11.82
2023-01-27T05:24:06.632Z,15.32
2023-01-27T05:26:33.838Z,11.82
2023-01-27T05:29:00.860Z,13.25
2023-01-27T05:31:31.736Z,12.45
2023-01-27T05:34:04.530Z,11.20
2023-01-27T05:36:31.929Z,14.30
2023-01-27T05:38:59.957Z,11.40
2023-01-27T05:41:33.157Z,10.52
2023-01-27T05:44:00.250Z,10.60
2023-01-27T05:46:32.289Z,11.45
2023-01-27T05:49:05.160Z,10.07
2023-01-27T05:51:40.253Z,9.80
2023-01-27T05:54:08.133Z,10.18
2023-01-27T05:56:35.560Z,9.05
2023-01-27T05:59:03.007Z,9.02
2023-01-27T06:01:34.915Z,13.13
2023-01-27T06:04:06.339Z,10.38
2023-01-27T06:06:33.945Z,9.98
2023-01-27T06:09:03.413Z,9.57
2023-01-27T06:11:30.732Z,10.10
2023-01-27T06:13:57.798Z,9.88
2023-01-27T06:16:25.689Z,14.93
2023-01-27T06:18:52.940Z,13.80
2023-01-27T06:21:20.817Z,13.27
2023-01-27T06:23:48.554Z,14.18
2023-01-27T06:26:19.180Z,12.00
2023-01-27T06:28:46.232Z,11.10
2023-01-27T06:31:21.568Z,10.88
2023-01-27T06:33:49.763Z,10.65
2023-01-27T06:36:20.796Z,13.50
2023-01-27T06:38:49.419Z,13.98
2023-01-27T06:41:17.244Z,11.15
2023-01-27T06:43:44.246Z,13.85
2023-01-27T06:46:12.477Z,13.70
2023-01-27T06:48:39.522Z,13.70
2023-01-27T06:51:07.312Z,12.95
2023-01-27T06:53:37.269Z,14.70
2023-01-27T06:56:05.981Z,13.18
2023-01-27T06:58:33.520Z,10.77
2023-01-27T07:01:01.004Z,10.65
2023-01-27T07:03:28.015Z,10.77
2023-01-27T07:05:55.274Z,11.23
2023-01-27T07:08:22.354Z,11.30
2023-01-27T07:10:49.593Z,10.95
2023-01-27T07:13:18.726Z,10.70
2023-01-27T07:15:46.137Z,11.13
2023-01-27T07:18:14.285Z,11.40
2023-01-27T07:20:42.276Z,14.20
2023-01-27T07:23:10.661Z,18.63
2023-01-27T07:25:38.005Z,13.30
2023-01-27T07:28:06.130Z,20.10
2023-01-27T07:30:38.838Z,16.80
2023-01-27T07:33:09.055Z,20.13
2023-01-27T07:35:38.957Z,16.05
2023-01-27T07:38:07.213Z,20.50
2023-01-27T07:40:35.884Z,17.27
2023-01-27T07:43:03.946Z,15.05
2023-01-27T07:45:34.127Z,17.67
2023-01-27T07:48:04.037Z,17.13
2023-01-27T07:50:31.876Z,14.32
2023-01-27T07:53:04.902Z,17.48
2023-01-27T07:55:33.585Z,18.27
2023-01-27T07:58:00.571Z,15.48
2023-01-27T08:00:29.094Z,16.38
2023-01-27T08:02:58.490Z,15.13
2023-01-27T08:05:26.936Z,15.18
2023-01-27T08:07:57.736Z,15.57
2023-01-27T08:10:26.064Z,15.57
2023-01-27T08:12:53.447Z,14.88
2023-01-27T08:15:20.809Z,16.15
2023-01-27T08:17:59.078Z,14.85
2023-01-27T08:20:28.191Z,12.98
2023-01-27T08:22:56.041Z,15.88
2023-01-27T08:25:24.647Z,14.98
2023-01-27T08:27:56.471Z,16.00
2023-01-27T08:30:25.132Z,15.18
2023-01-27T08:32:52.568Z,16.45
2023-01-27T08:35:19.927Z,12.18
2023-01-27T08:37:48.840Z,13.93
2023-01-27T08:40:17.316Z,13.45
2023-01-27T08:42:44.753Z,14.98
2023-01-27T08:45:12.256Z,16.08
2023-01-27T08:47:39.443Z,16.08
2023-01-27T08:50:07.648Z,13.20
2023-01-27T08:52:34.997Z,15.50
2023-01-27T08:55:05.433Z,15.52
2023-01-27T08:57:34.647Z,14.43
2023-01-27T09:00:05.982Z,15.15
2023-01-27T09:02:33.655Z,12.38
2023-01-27T09:05:00.748Z,14.65
2023-01-27T09:07:27.977Z,14.23
2023-01-27T09:10:07.711Z,13.30
2023-01-27T09:12:41.101Z,14.13
2023-01-27T09:15:08.865Z,14.00
2023-01-27T09:17:36.988Z,13.65
2023-01-27T09:20:05.663Z,14.65
2023-01-27T09:22:32.959Z,13.50
2023-01-27T09:25:00.293Z,12.23
2023-01-27T09:27:38.730Z,12.90
2023-01-27T09:30:09.117Z,13.80
2023-01-27T09:32:36.324Z,13.50
2023-01-27T09:35:05.678Z,12.52
2023-01-27T09:37:47.324Z,13.45
2023-01-27T09:40:51.983Z,12.63
2023-01-27T09:43:26.385Z,14.68
2023-01-27T09:46:17.614Z,13.45
2023-01-27T09:49:24.798Z,15.32
2023-01-27T09:52:15.738Z,15.52
2023-01-27T09:55:15.960Z,12.93
2023-01-27T09:58:03.377Z,10.77
2023-01-27T10:01:00.703Z,11.63
2023-01-27T10:04:26.915Z,13.55
2023-01-27T10:07:25.813Z,14.38
2023-01-27T10:10:25.139Z,14.18
2023-01-27T10:13:18.155Z,13.45
2023-01-27T10:16:21.848Z,11.98
2023-01-27T10:19:06.719Z,12.32
2023-01-27T10:22:05.299Z,11.32
2023-01-27T10:25:14.061Z,15.90
2023-01-27T10:28:11.167Z,13.68
2023-01-27T10:30:49.234Z,13.50
2023-01-27T10:33:34.450Z,11.93
2023-01-27T10:36:43.732Z,14.55
2023-01-27T10:39:32.914Z,12.75
2023-01-27T10:42:25.303Z,12.98
2023-01-27T10:45:42.619Z,15.00
2023-01-27T10:48:39.065Z,12.43
2023-01-27T10:51:13.772Z,13.73
2023-01-27T10:54:05.413Z,15.13
2023-01-27T10:56:41.806Z,15.18
2023-01-27T10:59:38.355Z,12.55
2023-01-27T11:02:27.958Z,13.70
2023-01-27T11:05:22.729Z,13.23
2023-01-27T11:08:00.902Z,11.52
2023-01-27T11:11:00.460Z,14.82
2023-01-27T11:13:31.912Z,14.38
2023-01-27T11:16:04.325Z,15.05
2023-01-27T11:18:37.934Z,12.88
2023-01-27T11:21:12.203Z,16.70
2023-01-27T11:23:46.728Z,13.07
2023-01-27T11:27:00.448Z,14.77
2023-01-27T11:29:49.248Z,15.52
2023-01-27T11:32:57.114Z,13.65
2023-01-27T11:35:24.323Z,12.95
2023-01-27T11:37:58.285Z,15.75
2023-01-27T11:40:35.539Z,16.30
2023-01-27T11:43:05.117Z,16.13
2023-01-27T11:45:36.622Z,18.45
2023-01-27T11:48:11.868Z,13.55
2023-01-27T11:50:41.755Z,14.73
2023-01-27T11:53:36.706Z,14.35
2023-01-27T11:56:15.890Z,12.73
2023-01-27T11:58:59.990Z,13.90
2023-01-27T12:01:55.288Z,14.45
2023-01-27T12:04:59.728Z,14.85
2023-01-27T12:07:35.564Z,16.90
2023-01-27T12:10:28.039Z,16.63
2023-01-27T12:12:58.023Z,16.00
2023-01-27T12:15:30.741Z,17.80
2023-01-27T12:18:04.302Z,16.02
2023-01-27T12:20:40.290Z,16.20
2023-01-27T12:23:27.938Z,17.77
2023-01-27T12:26:04.671Z,16.80
2023-01-27T12:28:42.208Z,18.27
2023-01-27T12:31:22.675Z,18.33
2023-01-27T12:34:24.487Z,17.85
2023-01-27T12:36:53.774Z,18.92
2023-01-27T12:39:26.355Z,17.52
2023-01-27T12:41:54.631Z,17.63
2023-01-27T12:44:23.075Z,16.02
2023-01-27T12:47:14.476Z,18.58
2023-01-27T12:49:44.645Z,18.30
2023-01-27T12:52:22.001Z,18.52
2023-01-27T12:54:51.248Z,17.90
2023-01-27T12:57:21.627Z,13.85
2023-01-27T12:59:57.647Z,17.73
2023-01-27T13:02:28.249Z,15.60
2023-01-27T13:05:08.013Z,17.23
2023-01-27T13:07:46.918Z,18.83
2023-01-27T13:10:25.503Z,16.67
2023-01-27T13:12:57.495Z,19.27
2023-01-27T13:15:31.098Z,15.73
2023-01-27T13:18:11.579Z,18.52
2023-01-27T13:20:51.633Z,17.95
2023-01-27T13:23:29.911Z,17.52
2023-01-27T13:26:08.991Z,18.35
2023-01-27T13:29:06.477Z,14.13
2023-01-27T13:31:48.664Z,13.38
2023-01-27T13:34:40.422Z,18.00
2023-01-27T13:37:38.806Z,14.90
2023-01-27T13:40:21.515Z,13.57
2023-01-27T13:43:10.778Z,11.63
2023-01-27T13:45:53.652Z,17.40
2023-01-27T13:48:35.053Z,13.48
2023-01-27T13:51:19.434Z,12.90
2023-01-27T13:53:51.900Z,13.20
2023-01-27T13:56:43.460Z,14.70
2023-01-27T13:59:45.504Z,14.60
2023-01-27T14:02:49.931Z,15.60
2023-01-27T14:05:57.976Z,15.75
2023-01-27T14:08:55.357Z,16.52
2023-01-27T14:12:14.308Z,17.02
2023-01-27T14:14:57.888Z,17.73
2023-01-27T14:17:53.026Z,13.43
2023-01-27T14:20:31.729Z,16.65
2023-01-27T14:23:21.679Z,14.93
2023-01-27T14:26:11.582Z,15.43
2023-01-27T14:29:21.886Z,13.60
2023-01-27T14:32:07.292Z,14.73
2023-01-27T14:35:14.412Z,16.38
2023-01-27T14:38:02.242Z,14.65
2023-01-27T14:40:42.493Z,13.98
2023-01-27T14:43:37.080Z,13.20
2023-01-27T14:46:42.388Z,19.13
2023-01-27T14:49:25.875Z,19.15
2023-01-27T14:52:04.396Z,15.63
2023-01-27T14:54:59.466Z,14.05
2023-01-27T14:58:00.205Z,14.98
2023-01-27T15:01:08.438Z,18.85
2023-01-27T15:04:02.236Z,14.60
2023-01-27T15:07:02.372Z,17.25
2023-01-27T15:10:18.313Z,16.83
2023-01-27T15:13:04.053Z,13.88
2023-01-27T15:16:16.046Z,14.50
2023-01-27T15:19:47.227Z,14.95
2023-01-27T15:22:47.485Z,13.82
2023-01-27T15:25:29.906Z,17.20
2023-01-27T15:27:58.724Z,20.00
2023-01-27T15:30:34.832Z,14.52
2023-01-27T15:33:42.506Z,16.40
2023-01-27T15:36:32.063Z,16.73
2023-01-27T15:39:09.100Z,14.68
2023-01-27T15:42:02.287Z,11.75
2023-01-27T15:47:32.567Z,12.32
2023-01-27T15:50:05.678Z,12.10
2023-01-27T15:52:41.742Z,13.02
2023-01-27T15:55:31.354Z,12.52
2023-01-27T15:58:25.879Z,14.15
2023-01-27T16:00:57.087Z,13.55
2023-01-27T16:03:44.790Z,13.13
2023-01-27T16:06:23.435Z,12.35
2023-01-27T16:09:06.774Z,12.90
2023-01-27T16:11:42.177Z,13.20
2023-01-27T16:14:12.580Z,13.82
2023-01-27T16:16:49.850Z,13.00
2023-01-27T16:19:34.011Z,10.57
2023-01-27T16:22:12.304Z,9.82
2023-01-27T16:25:13.558Z,10.40
2023-01-27T16:27:55.838Z,9.25
2023-01-27T16:30:29.689Z,10.00
2023-01-27T16:33:07.502Z,8.80
2023-01-27T16:35:53.168Z,8.55
2023-01-27T16:38:31.263Z,8.50
2023-01-27T16:41:03.584Z,7.53
2023-01-27T16:43:45.377Z,8.07
2023-01-27T16:46:35.147Z,5.47
2023-01-27T16:49:12.918Z,7.30
2023-01-27T16:51:40.384Z,9.32
2023-01-27T16:54:25.430Z,7.30
2023-01-27T16:56:53.666Z,6.43
2023-01-27T16:59:27.393Z,7.65
2023-01-27T17:02:00.561Z,8.13
2023-01-27T17:04:29.946Z,8.25
2023-01-27T17:07:06.884Z,7.35
2023-01-27T17:09:41.793Z,6.13
2023-01-27T17:12:50.489Z,7.68
2023-01-27T17:15:29.696Z,7.55
2023-01-27T17:17:58.044Z,6.80
2023-01-27T17:20:42.689Z,7.50
2023-01-27T17:23:35.403Z,8.07
2023-01-27T17:26:14.589Z,7.40
2023-01-27T17:28:45.848Z,8.60
2023-01-27T17:31:21.896Z,7.80
2023-01-27T17:33:59.962Z,7.63
2023-01-27T17:36:30.282Z,7.95
2023-01-27T17:38:57.620Z,7.88
2023-01-27T17:41:37.205Z,6.65
2023-01-27T17:44:13.806Z,6.63
2023-01-27T17:46:41.703Z,6.03
2023-01-27T17:49:17.165Z,7.47
2023-01-27T17:51:51.274Z,7.40
2023-01-27T17:54:38.601Z,7.40
2023-01-27T17:57:23.672Z,8.70
2023-01-27T18:00:00.665Z,7.40
2023-01-27T18:02:35.072Z,8.32
2023-01-27T18:05:16.473Z,8.65
2023-01-27T18:07:43.726Z,9.95
2023-01-27T18:10:33.879Z,9.55
2023-01-27T18:13:19.176Z,8.98
2023-01-27T18:16:02.215Z,9.85
2023-01-27T18:18:35.566Z,9.60
2023-01-27T18:21:04.139Z,8.68
2023-01-27T18:23:38.036Z,7.95
2023-01-27T18:26:25.892Z,9.05
2023-01-27T18:29:04.514Z,9.00
2023-01-27T18:31:45.823Z,11.02
2023-01-27T18:34:31.502Z,10.20
2023-01-27T18:37:20.806Z,9.82
2023-01-27T18:39:47.813Z,9.38
2023-01-27T18:42:20.658Z,10.70
2023-01-27T18:47:34.780Z,10.55
2023-01-27T18:50:19.251Z,11.55
2023-01-27T18:52:48.002Z,10.83
2023-01-27T18:55:20.827Z,11.10
2023-01-27T18:58:02.073Z,9.13
2023-01-27T19:00:47.859Z,11.00
2023-01-27T19:03:19.337Z,11.35
2023-01-27T19:05:48.154Z,9.20
2023-01-27T19:08:19.105Z,15.35
2023-01-27T19:10:47.964Z,12.57
2023-01-27T19:13:16.752Z,11.73
2023-01-27T19:15:50.044Z,14.25
2023-01-27T19:18:34.283Z,16.23
2023-01-27T19:21:02.296Z,13.38
2023-01-27T19:23:30.282Z,11.70
2023-01-27T19:26:03.292Z,11.57
2023-01-27T19:28:38.030Z,11.52
2023-01-27T19:31:07.354Z,11.65
2023-01-27T19:33:37.117Z,12.27
2023-01-27T19:36:30.727Z,11.87
2023-01-27T19:39:12.189Z,11.38
2023-01-27T19:41:39.582Z,12.35
2023-01-27T19:44:06.844Z,11.23
2023-01-27T19:46:34.877Z,11.05
2023-01-27T19:49:03.084Z,10.80
2023-01-27T19:51:31.490Z,10.18
2023-01-27T19:53:58.853Z,11.60
2023-01-27T19:56:32.203Z,11.15
2023-01-27T19:58:59.566Z,11.15
2023-01-27T20:01:26.733Z,11.02
2023-01-27T20:03:55.056Z,12.05
2023-01-27T20:06:27.763Z,12.45
2023-01-27T20:09:02.361Z,11.75
2023-01-27T20:11:43.495Z,13.40
2023-01-27T20:14:19.508Z,10.05
2023-01-27T20:16:47.393Z,12.13
2023-01-27T20:19:16.247Z,10.00
2023-01-27T20:21:46.282Z,11.95
2023-01-27T20:24:17.517Z,10.68
2023-01-27T20:26:46.087Z,9.57
2023-01-27T20:29:13.989Z,11.10
2023-01-27T20:31:42.183Z,10.82
2023-01-27T20:34:09.627Z,11.25
2023-01-27T20:36:36.782Z,9.53
2023-01-27T20:39:04.149Z,10.73
2023-01-27T20:41:31.321Z,11.77
2023-01-27T20:44:03.006Z,10.10
2023-01-27T20:46:30.530Z,9.25
2023-01-27T20:49:02.306Z,11.00
2023-01-27T20:51:29.281Z,9.25
2023-01-27T20:53:57.731Z,8.95
2023-01-27T20:56:24.792Z,9.52
2023-01-27T20:58:52.324Z,9.38
2023-01-27T21:01:24.682Z,9.55
2023-01-27T21:06:20.383Z,8.57
2023-01-27T21:08:49.259Z,10.95
2023-01-27T21:11:18.538Z,10.82
2023-01-27T21:13:46.678Z,8.75
2023-01-27T21:16:14.471Z,10.70
2023-01-27T21:18:42.031Z,11.15
2023-01-27T21:21:26.844Z,10.27
2023-01-27T21:23:56.172Z,10.00
2023-01-27T21:26:24.295Z,9.88
2023-01-27T21:28:52.865Z,11.73
2023-01-27T21:31:22.472Z,9.60
2023-01-27T21:33:50.822Z,11.30
2023-01-27T21:36:19.562Z,11.65
2023-01-27T21:38:50.413Z,9.18
2023-01-27T21:41:39.372Z,9.77
2023-01-27T21:44:42.345Z,9.32
2023-01-27T21:47:14.740Z,10.52
2023-01-27T21:50:04.144Z,11.50
2023-01-27T21:52:39.491Z,9.40
2023-01-27T21:55:10.867Z,9.20
2023-01-27T21:57:38.273Z,10.15
2023-01-27T22:00:09.518Z,9.85
2023-01-27T22:02:40.605Z,9.77
2023-01-27T22:05:12.754Z,11.38
2023-01-27T22:07:40.548Z,9.90
2023-01-27T22:10:19.150Z,9.65
2023-01-27T22:12:47.123Z,10.88
2023-01-27T22:15:16.251Z,10.75
2023-01-27T22:17:45.273Z,9.82
2023-01-27T22:20:15.544Z,10.75
2023-01-27T22:22:44.154Z,12.73
2023-01-27T22:25:15.808Z,10.18
2023-01-27T22:27:43.854Z,9.47
2023-01-27T22:30:18.155Z,12.73
2023-01-27T22:32:47.116Z,10.07
2023-01-27T22:35:17.952Z,12.50
2023-01-27T22:37:46.492Z,11.05
2023-01-27T22:40:14.285Z,12.98
2023-01-27T22:42:41.297Z,10.57
2023-01-27T22:45:10.135Z,11.15
2023-01-27T22:47:37.330Z,10.55
2023-01-27T22:50:05.627Z,10.85
2023-01-27T22:52:36.713Z,11.77
2023-01-27T22:55:06.822Z,11.95
2023-01-27T22:57:33.810Z,12.45
2023-01-27T23:00:05.524Z,13.35
2023-01-27T23:02:36.678Z,10.95
2023-01-27T23:05:04.532Z,10.80
2023-01-27T23:07:31.855Z,12.25
2023-01-27T23:09:59.122Z,10.23
2023-01-27T23:12:26.113Z,11.50
2023-01-27T23:14:54.538Z,11.40
2023-01-27T23:17:21.491Z,10.77
2023-01-27T23:19:48.643Z,12.50
2023-01-27T23:22:15.717Z,10.38
2023-01-27T23:24:42.920Z,11.55
2023-01-27T23:27:10.604Z,11.07
2023-01-27T23:29:37.796Z,10.10
2023-01-27T23:32:05.116Z,10.02
2023-01-27T23:34:32.362Z,10.98
2023-01-27T23:36:59.630Z,8.55
2023-01-27T23:39:26.755Z,12.18
2023-01-27T23:41:53.796Z,10.13
2023-01-27T23:44:21.011Z,11.85
2023-01-27T23:46:47.923Z,10.82
2023-01-27T23:49:15.357Z,11.82
2023-01-27T23:51:42.375Z,10.65
2023-01-27T23:54:09.504Z,11.10
2023-01-27T23:56:36.474Z,10.20
2023-01-27T23:59:05.021Z,9.32
